Time;durP1;ratioP1;P1;durP2;ratioP2;P2;SDS_P1;SDS_P2;PMS_P1;PMS_P2;Temp;Humidity;BMP_temperature;BMP_pressure;BME280_temperature;BME280_humidity;BME280_pressure;Samples;Min_cycle;Max_cycle;Signal;HPM_P1;HPM_P2
2023/09/16 00:01:12;;;;;;;1.40;1.17;;;;;;;16.83;94.00;98340.31;4154716;28;20262;-86
2023/09/16 00:03:14;;;;;;;1.30;1.15;;;;;;;16.78;94.70;98345.94;4154791;28;20216;-85
2023/09/16 00:05:17;;;;;;;4.78;1.42;;;;;;;16.87;94.37;98349.69;4120543;28;20224;-86
2023/09/16 00:07:21;;;;;;;2.25;1.40;;;;;;;16.73;94.65;98347.91;4120211;28;20245;-86
2023/09/16 00:09:23;;;;;;;1.63;1.50;;;;;;;16.79;95.00;98347.56;4123091;28;20214;-86
2023/09/16 00:11:25;;;;;;;2.08;1.83;;;;;;;16.76;94.83;98353.66;4155491;28;21753;-86
2023/09/16 00:13:30;;;;;;;2.00;1.80;;;;;;;16.75;94.84;98346.50;4136032;28;20213;-86
2023/09/16 00:15:45;;;;;;;1.73;1.50;;;;;;;16.65;94.79;98349.38;4137469;28;20289;-84
2023/09/16 00:17:47;;;;;;;1.42;1.10;;;;;;;16.62;94.74;98352.72;4156277;28;20315;-86
2023/09/16 00:19:48;;;;;;;1.25;1.13;;;;;;;16.63;95.35;98348.03;4155955;28;20836;-86
2023/09/16 00:21:50;;;;;;;1.85;1.20;;;;;;;16.70;95.26;98349.31;4137776;28;20213;-87
2023/09/16 00:23:52;;;;;;;1.52;1.17;;;;;;;16.58;95.26;98350.84;4136676;28;20216;-85
2023/09/16 00:25:54;;;;;;;2.03;1.30;;;;;;;16.51;95.41;98351.22;4156530;28;20200;-86
2023/09/16 00:27:58;;;;;;;1.27;0.98;;;;;;;16.47;95.39;98347.38;4156162;28;20236;-85
2023/09/16 00:30:09;;;;;;;1.60;1.20;;;;;;;16.41;96.22;98343.00;4123738;28;20210;-86
2023/09/16 00:32:11;;;;;;;2.13;1.48;;;;;;;16.38;95.99;98351.88;4137354;28;20220;-86
2023/09/16 00:34:12;;;;;;;1.98;1.20;;;;;;;16.35;96.00;98346.09;4139469;28;21009;-86
2023/09/16 00:36:14;;;;;;;2.17;1.00;;;;;;;16.37;96.27;98347.41;4122266;28;20256;-87
2023/09/16 00:38:16;;;;;;;1.27;1.08;;;;;;;16.34;96.10;98350.78;4132251;28;20284;-86
2023/09/16 00:40:17;;;;;;;1.20;1.10;;;;;;;16.29;96.09;98350.81;4129326;28;20274;-86
2023/09/16 00:42:19;;;;;;;1.13;1.02;;;;;;;16.28;96.49;98346.41;4126055;28;20210;-86
2023/09/16 00:44:20;;;;;;;1.45;1.10;;;;;;;16.22;95.65;98347.56;4141365;28;20225;-86
2023/09/16 00:46:22;;;;;;;1.45;1.35;;;;;;;16.28;96.49;98346.41;4121033;28;20657;-86
2023/09/16 00:48:24;;;;;;;1.77;1.30;;;;;;;16.23;96.42;98348.41;4131305;28;20308;-86
2023/09/16 00:50:31;;;;;;;2.38;1.77;;;;;;;16.20;96.41;98343.44;4127702;28;20230;-86
2023/09/16 00:52:37;;;;;;;1.75;1.42;;;;;;;16.21;96.49;98345.94;4146766;28;20244;-86
2023/09/16 00:54:39;;;;;;;1.38;1.27;;;;;;;16.18;96.58;98341.00;4131631;28;20205;-87
2023/09/16 00:56:40;;;;;;;1.95;1.48;;;;;;;16.18;96.65;98346.53;4162574;28;20220;-86
2023/09/16 00:58:42;;;;;;;4.97;1.67;;;;;;;16.14;96.88;98344.59;4124373;28;20723;-87
2023/09/16 01:00:45;;;;;;;1.73;1.50;;;;;;;16.03;97.02;98343.88;4141966;28;20669;-87
2023/09/16 01:02:47;;;;;;;2.88;2.22;;;;;;;16.00;97.26;98344.47;4122076;28;20217;-86
2023/09/16 01:04:49;;;;;;;1.83;1.42;;;;;;;16.00;97.43;98344.47;4139747;28;20251;-86
2023/09/16 01:06:51;;;;;;;1.70;1.60;;;;;;;15.97;96.74;98347.78;4140118;28;20233;-86
2023/09/16 01:08:54;;;;;;;1.83;1.17;;;;;;;15.98;97.28;98345.88;4141654;28;20209;-86
2023/09/16 01:11:05;;;;;;;1.27;1.17;;;;;;;15.89;97.56;98348.41;4127584;28;20194;-86
2023/09/16 01:13:07;;;;;;;1.40;1.30;;;;;;;15.83;97.80;98352.31;4122349;28;20665;-86
2023/09/16 01:15:13;;;;;;;1.63;1.33;;;;;;;15.80;97.96;98344.63;4139326;28;20212;-86
2023/09/16 01:17:33;;;;;;;1.73;1.42;;;;;;;15.79;98.46;98342.16;4140794;28;20622;-86
2023/09/16 01:20:00;;;;;;;1.25;1.15;;;;;;;15.82;98.42;98347.91;4136758;28;20224;-87
2023/09/16 01:22:02;;;;;;;1.23;1.10;;;;;;;15.77;98.46;98345.19;4138015;28;20213;-86
2023/09/16 01:24:23;;;;;;;1.45;1.17;;;;;;;15.72;98.16;98349.94;4141231;28;20205;-86
2023/09/16 01:26:24;;;;;;;2.20;1.80;;;;;;;15.77;98.32;98355.41;4123460;28;20251;-86
2023/09/16 01:28:26;;;;;;;1.10;0.98;;;;;;;15.77;98.08;98352.66;4138891;28;20747;-86
2023/09/16 01:30:29;;;;;;;2.10;1.50;;;;;;;15.75;98.33;98352.94;4125566;28;20791;-86
2023/09/16 01:32:47;;;;;;;1.20;0.95;;;;;;;15.76;97.82;98354.59;4139519;28;20622;-86
2023/09/16 01:34:52;;;;;;;1.98;1.40;;;;;;;15.74;97.68;98350.47;4158687;28;20250;-86
2023/09/16 01:36:57;;;;;;;1.50;1.40;;;;;;;15.74;98.28;98356.81;4159379;28;20221;-86
2023/09/16 01:39:03;;;;;;;1.88;1.52;;;;;;;15.67;98.17;98356.31;4139550;28;20212;-87
2023/09/16 01:41:17;;;;;;;2.03;1.40;;;;;;;15.73;98.36;98344.13;4123746;28;20264;-86
2023/09/16 01:43:21;;;;;;;1.30;1.20;;;;;;;15.62;98.27;98358.28;4138163;28;20214;-85
2023/09/16 01:45:22;;;;;;;2.20;1.50;;;;;;;15.61;98.46;98354.69;4152703;28;20204;-86
2023/09/16 01:47:24;;;;;;;1.15;1.05;;;;;;;15.56;98.94;98359.44;4140451;28;20229;-86
2023/09/16 01:49:25;;;;;;;1.30;1.15;;;;;;;15.58;98.75;98346.16;4126146;28;20433;-87
2023/09/16 01:51:27;;;;;;;1.80;1.50;;;;;;;15.60;98.91;98354.97;4121249;28;20252;-84
2023/09/16 01:53:29;;;;;;;2.35;1.52;;;;;;;15.61;99.00;98357.44;4140809;28;20255;-86
2023/09/16 01:55:31;;;;;;;1.40;1.30;;;;;;;15.49;99.28;98359.75;4139230;28;20209;-86
2023/09/16 01:57:32;;;;;;;2.15;1.70;;;;;;;15.48;99.29;98363.59;4141600;28;20236;-86
2023/09/16 01:59:43;;;;;;;1.55;1.45;;;;;;;15.52;99.37;98359.19;4142192;28;20210;-87
2023/09/16 02:01:46;;;;;;;1.42;1.33;;;;;;;15.52;99.11;98359.19;4138695;28;20229;-86
2023/09/16 02:03:48;;;;;;;1.77;1.50;;;;;;;15.49;99.08;98358.94;4139580;28;20213;-87
2023/09/16 02:05:49;;;;;;;2.13;1.67;;;;;;;15.42;98.74;98361.97;4140118;28;20268;-87
2023/09/16 02:07:51;;;;;;;1.58;1.48;;;;;;;15.42;98.72;98370.25;4141330;28;20237;-86
2023/09/16 02:09:54;;;;;;;1.70;1.20;;;;;;;15.41;99.36;98368.63;4117583;28;20214;-86
2023/09/16 02:11:55;;;;;;;3.58;1.13;;;;;;;15.41;98.73;98363.09;4140636;28;20201;-86
2023/09/16 02:13:58;;;;;;;2.60;1.92;;;;;;;15.45;99.11;98368.88;4139030;28;20699;-87
2023/09/16 02:16:00;;;;;;;1.25;1.10;;;;;;;15.39;99.30;98376.34;4143344;28;20205;-85
2023/09/16 02:18:02;;;;;;;2.70;1.42;;;;;;;15.40;99.09;98371.66;4124706;28;20226;-86
2023/09/16 02:20:14;;;;;;;1.33;1.23;;;;;;;15.37;99.14;98372.22;4146028;28;20226;-87
2023/09/16 02:22:16;;;;;;;1.67;1.45;;;;;;;15.40;99.04;98372.50;4158203;28;20212;-86
2023/09/16 02:24:18;;;;;;;1.42;1.33;;;;;;;15.44;98.98;98373.53;4144289;28;20201;-86
2023/09/16 02:26:19;;;;;;;1.20;0.98;;;;;;;15.47;98.92;98384.03;4142500;28;20911;-86
2023/09/16 02:28:21;;;;;;;1.45;1.17;;;;;;;15.40;98.56;98379.91;4145218;28;20292;-86
2023/09/16 02:30:23;;;;;;;1.40;1.30;;;;;;;15.37;99.20;98378.56;4142814;28;20201;-86
2023/09/16 02:32:24;;;;;;;1.30;1.17;;;;;;;15.36;98.87;98382.41;4140186;28;20676;-86
2023/09/16 02:34:37;;;;;;;1.00;1.00;;;;;;;15.31;98.47;98379.66;4123480;28;20214;-85
2023/09/16 02:36:39;;;;;;;1.63;1.52;;;;;;;15.27;98.83;98377.75;4138642;28;20197;-86
2023/09/16 02:38:41;;;;;;;2.40;2.08;;;;;;;15.25;99.05;98380.81;4142740;28;20197;-87
2023/09/16 02:40:42;;;;;;;1.13;0.98;;;;;;;15.26;99.05;98382.47;4124465;28;20218;-86
2023/09/16 02:42:44;;;;;;;1.40;1.30;;;;;;;15.19;99.04;98375.59;4139960;28;20200;-87
2023/09/16 02:44:45;;;;;;;1.45;1.30;;;;;;;15.14;99.20;98379.19;4156483;28;20216;-83
2023/09/16 02:46:47;;;;;;;2.03;1.88;;;;;;;15.08;99.39;98379.50;4140008;28;20264;-86
2023/09/16 02:48:49;;;;;;;1.40;1.30;;;;;;;15.10;99.61;98378.09;4139146;28;20679;-87
2023/09/16 02:50:51;;;;;;;1.88;1.50;;;;;;;15.12;99.18;98375.91;4119752;28;20198;-86
2023/09/16 02:52:52;;;;;;;0.90;0.88;;;;;;;15.08;98.89;98377.56;4124378;28;20584;-86
2023/09/16 02:54:57;;;;;;;1.38;1.27;;;;;;;15.07;98.76;98375.94;4139855;28;20302;-85
2023/09/16 02:57:04;;;;;;;1.60;1.50;;;;;;;15.10;99.03;98378.09;4123527;28;20241;-88
2023/09/16 02:59:06;;;;;;;1.33;1.10;;;;;;;15.14;99.11;98378.38;4138579;28;20291;-84
2023/09/16 03:01:10;;;;;;;1.77;1.67;;;;;;;15.00;99.34;98378.16;4119976;28;20290;-86
2023/09/16 03:03:12;;;;;;;1.25;1.10;;;;;;;14.96;99.13;98382.56;4141937;28;20213;-87
2023/09/16 03:05:13;;;;;;;0.70;0.70;;;;;;;14.88;99.21;98374.91;4139678;28;20239;-86
2023/09/16 03:07:15;;;;;;;1.50;1.40;;;;;;;14.97;99.92;98378.72;4136942;28;20233;-85
2023/09/16 03:09:19;;;;;;;2.20;1.08;;;;;;;14.95;99.56;98380.09;4137155;28;20244;-86
2023/09/16 03:11:21;;;;;;;1.48;1.30;;;;;;;14.99;99.45;98378.44;4159490;28;20259;-86
2023/09/16 03:13:23;;;;;;;2.00;1.73;;;;;;;14.95;99.58;98372.66;4119733;28;20673;-87
2023/09/16 03:15:34;;;;;;;1.65;1.55;;;;;;;14.91;99.29;98377.06;4153400;28;20719;-85
2023/09/16 03:17:36;;;;;;;12.45;2.42;;;;;;;14.95;99.58;98367.16;4120574;28;20312;-86
2023/09/16 03:19:38;;;;;;;1.50;1.20;;;;;;;14.90;99.63;98367.16;4138804;28;20201;-86
2023/09/16 03:21:39;;;;;;;1.67;1.58;;;;;;;14.98;99.79;98372.13;4138118;28;20888;-86
2023/09/16 03:23:42;;;;;;;1.58;1.33;;;;;;;14.88;99.61;98363.88;4138307;28;20205;-86
2023/09/16 03:25:43;;;;;;;1.30;1.20;;;;;;;14.83;99.41;98363.88;4136976;28;20208;-86
2023/09/16 03:27:45;;;;;;;1.40;1.30;;;;;;;14.84;99.89;98361.97;4123808;28;20229;-84
2023/09/16 03:29:47;;;;;;;1.45;1.35;;;;;;;14.83;99.91;98365.84;4139527;28;20658;-86
2023/09/16 03:31:48;;;;;;;3.13;1.30;;;;;;;14.75;100.00;98367.22;4121793;28;20202;-87
2023/09/16 03:33:50;;;;;;;1.23;1.10;;;;;;;14.77;100.00;98364.19;4138862;28;20581;-86
2023/09/16 03:35:51;;;;;;;1.60;1.50;;;;;;;14.71;100.00;98352.34;4139261;28;20216;-86
2023/09/16 03:38:00;;;;;;;1.50;1.40;;;;;;;14.75;100.00;98353.44;4140240;28;20248;-86
2023/09/16 03:40:02;;;;;;;9.98;3.63;;;;;;;14.68;100.00;98363.94;4121372;28;20929;-85
2023/09/16 03:42:05;;;;;;;2.47;1.50;;;;;;;14.69;99.94;98354.56;4139198;28;20687;-86
2023/09/16 03:44:06;;;;;;;1.55;1.38;;;;;;;14.69;99.85;98354.56;4138214;28;20205;-86
2023/09/16 03:46:08;;;;;;;2.00;1.63;;;;;;;14.74;99.94;98357.31;4137258;28;20266;-86
2023/09/16 03:48:10;;;;;;;1.77;1.55;;;;;;;14.74;100.00;98346.28;4123332;28;20230;-86
2023/09/16 03:50:11;;;;;;;1.88;1.60;;;;;;;14.73;99.77;98344.66;4136721;28;20260;-86
2023/09/16 03:52:13;;;;;;;1.73;1.63;;;;;;;14.68;99.96;98350.16;4119663;28;20236;-86
2023/09/16 03:54:15;;;;;;;1.40;1.30;;;;;;;14.67;100.00;98344.94;4119845;28;20563;-87
2023/09/16 03:56:16;;;;;;;1.83;1.65;;;;;;;14.65;99.97;98345.22;4121188;28;20240;-87
2023/09/16 03:58:18;;;;;;;1.75;1.38;;;;;;;14.58;100.00;98347.44;4121031;28;20233;-87
2023/09/16 04:00:20;;;;;;;1.73;1.40;;;;;;;14.62;100.00;98347.72;4151871;28;20209;-86
2023/09/16 04:02:22;;;;;;;1.85;1.38;;;;;;;14.65;100.00;98348.00;4122924;28;20201;-87
2023/09/16 04:04:23;;;;;;;2.13;1.73;;;;;;;14.58;100.00;98343.88;4139276;28;20208;-87
2023/09/16 04:06:26;;;;;;;1.33;1.23;;;;;;;14.53;99.97;98338.38;4123426;28;20201;-87
2023/09/16 04:08:28;;;;;;;1.73;1.58;;;;;;;14.58;100.00;98341.91;4143405;28;20237;-86
2023/09/16 04:10:42;;;;;;;2.15;1.52;;;;;;;14.53;99.82;98341.13;4142003;28;20201;-87
2023/09/16 04:12:44;;;;;;;7.15;1.60;;;;;;;14.57;100.00;98340.28;4141387;28;20209;-85
2023/09/16 04:14:45;;;;;;;7.80;2.13;;;;;;;14.50;100.00;98339.75;4158580;28;20204;-86
2023/09/16 04:16:47;;;;;;;3.35;1.60;;;;;;;14.44;99.80;98327.09;4139521;28;20323;-86
2023/09/16 04:18:49;;;;;;;3.40;2.28;;;;;;;14.46;100.00;98337.84;4127228;28;20277;-85
2023/09/16 04:20:55;;;;;;;1.30;1.20;;;;;;;14.41;100.00;98326.84;4144421;28;20304;-84
2023/09/16 04:22:59;;;;;;;2.10;1.90;;;;;;;14.45;100.00;98336.19;4143373;28;20650;-85
2023/09/16 04:25:01;;;;;;;2.22;1.73;;;;;;;14.38;100.00;98335.66;4139956;28;20218;-86
2023/09/16 04:27:03;;;;;;;2.42;2.00;;;;;;;14.35;100.00;98330.69;4143778;28;20272;-87
2023/09/16 04:29:04;;;;;;;2.13;1.55;;;;;;;14.27;100.00;98334.03;4145746;28;20592;-87
2023/09/16 04:31:08;;;;;;;2.00;1.80;;;;;;;14.30;100.00;98334.28;4133556;28;20236;-87
2023/09/16 04:33:10;;;;;;;2.45;1.80;;;;;;;14.21;100.00;98330.47;4140084;28;20240;-86
2023/09/16 04:35:12;;;;;;;21.50;1.83;;;;;;;14.19;100.00;98337.34;4130960;28;20214;-87
2023/09/16 04:37:14;;;;;;;2.90;1.25;;;;;;;14.16;100.00;98333.19;4137934;28;20233;-86
2023/09/16 04:39:17;;;;;;;2.88;1.45;;;;;;;14.19;100.00;98338.19;4159990;28;20200;-86
2023/09/16 04:41:21;;;;;;;1.05;1.00;;;;;;;14.08;100.00;98335.66;4141243;28;20268;-86
2023/09/16 04:43:25;;;;;;;1.65;1.20;;;;;;;14.13;100.00;98327.41;4127987;28;20210;-86
2023/09/16 04:45:32;;;;;;;1.33;1.20;;;;;;;14.07;100.00;98323.84;4140919;28;20252;-86
2023/09/16 04:47:34;;;;;;;1.27;1.13;;;;;;;14.10;100.00;98319.72;4137670;28;20229;-86
2023/09/16 04:49:36;;;;;;;1.08;0.95;;;;;;;14.07;100.00;98317.50;4124424;28;20972;-87
2023/09/16 04:51:38;;;;;;;1.50;1.38;;;;;;;14.13;100.00;98322.75;4127971;28;20202;-86
2023/09/16 04:53:40;;;;;;;1.20;1.10;;;;;;;14.06;100.00;98322.19;4147653;28;20208;-87
2023/09/16 04:55:41;;;;;;;1.08;1.00;;;;;;;14.01;100.00;98330.47;4141174;28;20210;-87
2023/09/16 04:57:43;;;;;;;1.15;1.05;;;;;;;14.01;100.00;98319.44;4140108;28;20685;-86
2023/09/16 04:59:58;;;;;;;1.65;1.50;;;;;;;13.96;100.00;98321.41;4140920;28;20301;-85
2023/09/16 05:02:00;;;;;;;1.30;1.20;;;;;;;14.00;100.00;98328.81;4141945;28;20229;-87
2023/09/16 05:04:01;;;;;;;1.88;1.50;;;;;;;13.92;100.00;98321.13;4120879;28;20791;-86
2023/09/16 05:06:03;;;;;;;0.90;0.90;;;;;;;13.90;100.00;98322.50;4141172;28;20206;-86
2023/09/16 05:08:08;;;;;;;1.75;1.48;;;;;;;13.95;100.00;98326.06;4126077;28;20328;-86
2023/09/16 05:10:11;;;;;;;1.92;1.63;;;;;;;14.00;100.00;98326.06;4142121;28;20247;-85
2023/09/16 05:12:13;;;;;;;1.58;1.08;;;;;;;14.05;100.00;98320.56;4142530;28;20205;-86
2023/09/16 05:14:16;;;;;;;2.08;1.30;;;;;;;14.08;100.00;98320.00;4124561;28;20222;-87
2023/09/16 05:16:17;;;;;;;1.52;1.20;;;;;;;14.06;100.00;98318.63;4123807;28;20234;-86
2023/09/16 05:18:24;;;;;;;1.42;1.33;;;;;;;14.04;100.00;98323.56;4148134;28;20702;-86
2023/09/16 05:20:26;;;;;;;1.20;1.10;;;;;;;14.00;100.00;98328.81;4144253;28;20201;-86
2023/09/16 05:22:28;;;;;;;1.42;1.33;;;;;;;13.99;100.00;98329.91;4142164;28;20527;-87
2023/09/16 05:24:31;;;;;;;1.42;1.33;;;;;;;14.07;100.00;98328.50;4143462;28;20206;-86
2023/09/16 05:26:33;;;;;;;1.55;1.08;;;;;;;14.06;100.00;98324.97;4160329;28;20204;-86
2023/09/16 05:28:34;;;;;;;1.92;1.80;;;;;;;14.07;100.00;98334.00;4128129;28;20260;-87
2023/09/16 05:30:36;;;;;;;2.00;1.13;;;;;;;14.04;100.00;98329.88;4127895;28;20241;-86
2023/09/16 05:32:37;;;;;;;1.63;1.17;;;;;;;14.07;100.00;98329.34;4160530;28;20579;-86
2023/09/16 05:34:39;;;;;;;1.40;1.30;;;;;;;14.10;100.00;98334.28;4138919;28;20217;-86
2023/09/16 05:36:41;;;;;;;1.55;1.33;;;;;;;14.05;100.00;98330.72;4123482;28;20459;-86
2023/09/16 05:38:42;;;;;;;1.60;1.50;;;;;;;14.07;100.00;98323.84;4123019;28;20198;-86
2023/09/16 05:40:44;;;;;;;3.03;2.72;;;;;;;14.03;100.00;98333.75;4141449;28;22604;-86
2023/09/16 05:42:46;;;;;;;1.42;1.33;;;;;;;14.05;100.00;98337.06;4143315;28;20209;-85
2023/09/16 05:44:56;;;;;;;1.67;1.38;;;;;;;14.05;100.00;98326.06;4143201;28;20213;-86
2023/09/16 05:46:58;;;;;;;1.35;1.20;;;;;;;14.03;100.00;98333.75;4155785;28;20235;-87
2023/09/16 05:49:09;;;;;;;1.52;1.20;;;;;;;14.06;100.00;98333.22;4155672;28;20219;-84
2023/09/16 05:51:11;;;;;;;3.17;1.25;;;;;;;14.10;100.00;98345.28;4138687;28;20193;-87
2023/09/16 05:53:16;;;;;;;1.77;1.27;;;;;;;14.14;100.00;98335.41;4123683;28;20237;-86
2023/09/16 05:55:21;;;;;;;1.38;1.27;;;;;;;14.18;100.00;98342.00;4142114;28;20208;-86
2023/09/16 05:57:23;;;;;;;1.45;1.20;;;;;;;14.25;100.00;98339.81;4158583;28;20260;-85
2023/09/16 05:59:24;;;;;;;1.73;1.60;;;;;;;14.30;100.00;98345.31;4125841;28;20210;-86
2023/09/16 06:01:26;;;;;;;1.75;1.25;;;;;;;14.41;100.00;98341.44;4143089;28;20229;-86
2023/09/16 06:03:28;;;;;;;2.35;1.83;;;;;;;14.44;100.00;98348.31;4137174;28;20209;-85
2023/09/16 06:05:30;;;;;;;2.03;1.48;;;;;;;14.44;100.00;98340.06;4160565;28;20209;-86
2023/09/16 06:07:31;;;;;;;2.08;1.77;;;;;;;14.42;100.00;98350.53;4142524;28;20229;-86
2023/09/16 06:09:33;;;;;;;2.63;2.42;;;;;;;14.39;100.00;98351.06;4125753;28;20233;-85
2023/09/16 06:11:34;;;;;;;1.83;1.73;;;;;;;14.51;100.00;98357.91;4139738;28;20226;-86
2023/09/16 06:13:36;;;;;;;2.28;1.85;;;;;;;14.67;100.00;98350.44;4139591;28;20238;-86
2023/09/16 06:15:38;;;;;;;1.63;1.48;;;;;;;15.05;100.00;98347.00;4139440;28;20217;-86
2023/09/16 06:17:39;;;;;;;2.10;1.70;;;;;;;15.43;100.00;98349.84;4139207;28;20230;-86
2023/09/16 06:19:41;;;;;;;1.48;1.38;;;;;;;15.69;100.00;98351.31;4150426;28;20206;-87
2023/09/16 06:21:57;;;;;;;1.55;1.45;;;;;;;16.09;100.00;98359.28;4127954;28;20222;-85
2023/09/16 06:23:59;;;;;;;2.55;2.35;;;;;;;15.99;100.00;98353.88;4127865;28;20237;-85
2023/09/16 06:26:01;;;;;;;1.98;1.40;;;;;;;16.14;100.00;98350.97;4128445;28;20241;-85
2023/09/16 06:28:03;;;;;;;2.47;2.17;;;;;;;16.54;100.00;98350.59;4143012;28;20662;-86
2023/09/16 06:30:06;;;;;;;2.42;1.58;;;;;;;16.83;99.75;98359.66;4145745;28;20211;-86
2023/09/16 06:32:08;;;;;;;1.40;1.00;;;;;;;17.08;97.93;98357.44;4145617;28;20668;-86
2023/09/16 06:34:18;;;;;;;2.00;1.58;;;;;;;17.47;97.47;98360.00;4129464;28;20248;-86
2023/09/16 06:36:20;;;;;;;2.47;1.63;;;;;;;17.75;93.16;98353.47;4143847;28;20220;-87
2023/09/16 06:38:21;;;;;;;2.58;2.00;;;;;;;17.87;92.76;98346.38;4127383;28;20230;-86
2023/09/16 06:40:23;;;;;;;1.80;1.70;;;;;;;17.84;91.11;98348.94;4156572;28;20205;-86
2023/09/16 06:42:25;;;;;;;1.77;1.10;;;;;;;17.63;90.50;98365.00;4121526;28;20226;-85
2023/09/16 06:44:26;;;;;;;1.48;1.25;;;;;;;18.40;91.23;98363.50;4138793;28;20235;-85
2023/09/16 06:46:28;;;;;;;2.35;1.80;;;;;;;19.02;87.33;98360.09;4124894;28;20597;-85
2023/09/16 06:48:29;;;;;;;2.08;1.63;;;;;;;19.71;86.55;98363.31;4159087;28;20231;-85
2023/09/16 06:50:31;;;;;;;1.92;1.10;;;;;;;20.06;81.69;98354.19;4123956;28;20218;-86
2023/09/16 06:52:35;;;;;;;1.55;1.25;;;;;;;19.59;82.01;98359.47;4139711;28;20206;-86
2023/09/16 06:54:37;;;;;;;2.67;1.85;;;;;;;19.63;82.39;98360.47;4121907;28;20666;-86
2023/09/16 06:56:40;;;;;;;2.05;1.65;;;;;;;20.37;79.21;98365.38;4144654;28;20205;-86
2023/09/16 06:58:41;;;;;;;1.98;1.30;;;;;;;20.47;76.60;98365.09;4145195;28;20206;-86
2023/09/16 07:00:43;;;;;;;1.95;1.50;;;;;;;20.65;75.91;98355.75;4143988;28;20205;-86
2023/09/16 07:02:53;;;;;;;2.00;1.33;;;;;;;21.06;74.42;98357.13;4143965;28;20228;-86
2023/09/16 07:04:55;;;;;;;1.42;1.33;;;;;;;20.90;74.63;98357.88;4124614;28;20207;-85
2023/09/16 07:06:57;;;;;;;1.70;1.38;;;;;;;20.85;75.51;98349.63;4138278;28;20271;-86
2023/09/16 07:08:58;;;;;;;4.15;2.13;;;;;;;21.29;73.28;98360.59;4124244;28;20214;-86
2023/09/16 07:11:00;;;;;;;3.88;1.58;;;;;;;21.68;71.56;98363.34;4137704;28;20209;-86
2023/09/16 07:13:02;;;;;;;2.13;1.45;;;;;;;22.21;71.56;98361.09;4139383;28;20205;-85
2023/09/16 07:15:03;;;;;;;1.52;1.42;;;;;;;22.56;67.04;98369.13;4137700;28;20216;-85
2023/09/16 07:17:06;;;;;;;1.95;1.45;;;;;;;22.99;65.57;98361.47;4138525;28;20239;-87
2023/09/16 07:19:08;;;;;;;1.77;1.55;;;;;;;22.96;66.56;98367.69;4138628;28;20223;-86
2023/09/16 07:21:18;;;;;;;1.52;1.30;;;;;;;23.26;63.93;98371.38;4154391;28;20227;-86
2023/09/16 07:23:19;;;;;;;1.77;1.65;;;;;;;22.94;66.30;98380.34;4126218;28;20442;-86
2023/09/16 07:25:22;;;;;;;1.60;1.48;;;;;;;23.13;65.37;98377.97;4128573;28;20244;-86
2023/09/16 07:27:23;;;;;;;9.27;1.67;;;;;;;23.65;63.01;98380.19;4141179;28;20224;-86
2023/09/16 07:29:27;;;;;;;2.65;1.80;;;;;;;23.97;62.39;98387.09;4143577;28;20201;-85
2023/09/16 07:31:29;;;;;;;1.95;1.42;;;;;;;23.80;62.70;98380.44;4140022;28;20219;-86
2023/09/16 07:33:31;;;;;;;2.15;1.92;;;;;;;23.91;62.62;98382.88;4124961;28;20223;-86
2023/09/16 07:35:32;;;;;;;2.15;1.23;;;;;;;23.71;62.96;98380.84;4137547;28;20225;-86
2023/09/16 07:37:34;;;;;;;6.60;1.33;;;;;;;23.33;64.13;98371.69;4133474;28;20228;-86
2023/09/16 07:39:35;;;;;;;23.52;1.90;;;;;;;23.47;64.37;98375.88;4141812;28;20209;-87
2023/09/16 07:41:48;;;;;;;;;;;;;;;;;;;;;
2023/09/16 07:43:49;;;;;;;5.93;2.35;;;;;;;22.18;68.61;98384.06;4146639;28;20710;-86
2023/09/16 07:45:51;;;;;;;1.67;1.25;;;;;;;23.38;65.45;98380.69;4127758;28;20202;-86
2023/09/16 07:47:53;;;;;;;2.45;1.52;;;;;;;23.67;64.44;98379.88;4126245;28;20228;-87
2023/09/16 07:49:56;;;;;;;1.83;1.52;;;;;;;22.77;67.21;98388.78;4139504;28;20216;-86
2023/09/16 07:51:57;;;;;;;3.40;2.05;;;;;;;23.31;66.81;98379.59;4122463;28;20247;-87
2023/09/16 07:54:01;;;;;;;1.90;1.75;;;;;;;23.26;66.10;98390.94;4141281;28;20327;-86
2023/09/16 07:56:02;;;;;;;3.67;3.00;;;;;;;23.26;67.14;98394.56;4138661;28;20217;-87
2023/09/16 07:58:15;;;;;;;2.97;1.73;;;;;;;24.28;63.87;98391.97;4155670;28;20322;-87
2023/09/16 08:00:17;;;;;;;1.98;1.55;;;;;;;24.39;63.15;98395.97;4138040;28;20325;-86
2023/09/16 08:02:18;;;;;;;3.58;2.03;;;;;;;24.69;62.46;98397.53;4140880;28;20228;-87
2023/09/16 08:04:20;;;;;;;1.45;1.33;;;;;;;25.07;60.78;98388.88;4138359;28;20750;-86
2023/09/16 08:06:23;;;;;;;1.63;1.45;;;;;;;25.55;59.91;98389.78;4122985;28;20213;-85
2023/09/16 08:08:24;;;;;;;2.47;1.92;;;;;;;25.15;60.54;98402.78;4138400;28;20236;-87
2023/09/16 08:10:26;;;;;;;1.30;1.20;;;;;;;25.44;59.62;98393.38;4123264;28;20240;-86
2023/09/16 08:12:28;;;;;;;1.83;1.45;;;;;;;25.47;59.01;98387.09;4138617;28;20527;-87
2023/09/16 08:14:29;;;;;;;2.05;1.50;;;;;;;25.72;60.40;98400.75;4118578;28;20632;-87
2023/09/16 08:16:40;;;;;;;2.58;1.88;;;;;;;25.68;59.55;98394.22;4121258;28;20205;-85
2023/09/16 08:18:42;;;;;;;2.13;1.85;;;;;;;25.61;59.78;98405.22;4140353;28;20219;-87
2023/09/16 08:20:44;;;;;;;1.88;1.63;;;;;;;26.09;58.56;98404.34;4139704;28;20212;-86
2023/09/16 08:22:46;;;;;;;15.00;2.17;;;;;;;25.83;59.26;98401.09;4153483;28;20238;-86
2023/09/16 08:24:49;;;;;;;1.63;1.05;;;;;;;25.72;60.70;98405.56;4164908;28;20196;-87
2023/09/16 08:26:50;;;;;;;2.33;1.40;;;;;;;24.64;61.56;98405.31;4143975;28;20208;-87
2023/09/16 08:28:52;;;;;;;1.30;1.20;;;;;;;24.21;63.44;98410.44;4138587;28;20702;-86
2023/09/16 08:30:54;;;;;;;8.13;1.98;;;;;;;24.12;63.98;98407.69;4138753;28;20209;-86
2023/09/16 08:32:55;;;;;;;1.77;1.65;;;;;;;23.80;65.48;98396.41;4137644;28;20208;-86
2023/09/16 08:34:57;;;;;;;2.53;1.45;;;;;;;23.67;66.08;98395.47;4121581;28;20227;-86
2023/09/16 08:36:59;;;;;;;1.63;1.35;;;;;;;24.85;62.90;98401.31;4143844;28;20217;-86
2023/09/16 08:39:11;;;;;;;1.65;1.52;;;;;;;25.44;60.92;98394.22;4129935;28;20213;-86
2023/09/16 08:41:22;;;;;;;2.90;1.63;;;;;;;25.81;60.13;98395.84;4125275;28;20210;-85
2023/09/16 08:43:42;;;;;;;1.63;1.42;;;;;;;26.20;59.29;98400.69;4152431;28;20701;-85
2023/09/16 08:45:45;;;;;;;1.40;1.30;;;;;;;25.45;59.83;98395.84;4154953;28;20204;-86
2023/09/16 08:48:05;;;;;;;2.38;1.85;;;;;;;26.38;59.71;98399.25;4137457;28;20225;-86
2023/09/16 08:50:09;;;;;;;1.83;1.30;;;;;;;26.97;58.38;98397.38;4141400;28;20208;-87
2023/09/16 08:52:15;;;;;;;1.77;1.58;;;;;;;26.39;60.41;98409.31;4144493;28;20675;-87
2023/09/16 08:54:18;;;;;;;1.40;1.30;;;;;;;25.97;60.11;98407.19;4130518;28;20275;-87
2023/09/16 08:56:25;;;;;;;1.83;1.10;;;;;;;25.94;60.40;98411.50;4145539;28;20591;-86
2023/09/16 08:58:27;;;;;;;1.58;1.45;;;;;;;26.87;58.82;98425.19;4129338;28;20290;-87
2023/09/16 09:00:29;;;;;;;4.13;1.58;;;;;;;26.42;58.99;98407.78;4141171;28;20344;-86
2023/09/16 09:02:31;;;;;;;2.33;1.73;;;;;;;25.40;61.87;98410.06;4140101;28;20228;-86
2023/09/16 09:04:34;;;;;;;2.42;1.75;;;;;;;25.00;62.49;98414.63;4140807;28;20730;-86
2023/09/16 09:06:37;;;;;;;1.30;1.20;;;;;;;24.91;63.42;98413.94;4122637;28;20791;-86
2023/09/16 09:08:41;;;;;;;1.67;1.42;;;;;;;25.62;62.49;98406.84;4125791;28;20225;-86
2023/09/16 09:10:43;;;;;;;1.83;1.25;;;;;;;26.67;59.46;98410.16;4137714;28;20201;-86
2023/09/16 09:12:58;;;;;;;1.48;1.35;;;;;;;27.03;60.08;98407.19;4143037;28;20246;-86
2023/09/16 09:15:04;;;;;;;1.90;1.73;;;;;;;26.79;59.20;98418.53;4140161;28;20235;-86
2023/09/16 09:17:06;;;;;;;1.92;1.30;;;;;;;27.42;57.86;98423.13;4138998;28;20672;-86
2023/09/16 09:19:08;;;;;;;1.30;1.13;;;;;;;27.83;56.35;98422.59;4122588;28;20212;-87
2023/09/16 09:21:10;;;;;;;2.00;1.23;;;;;;;27.51;57.96;98415.34;4124120;28;20206;-86
2023/09/16 09:23:14;;;;;;;1.52;1.35;;;;;;;27.27;58.54;98418.28;4138162;28;20311;-87
2023/09/16 09:25:22;;;;;;;1.63;1.52;;;;;;;27.37;56.65;98417.78;4123628;28;20213;-86
2023/09/16 09:27:24;;;;;;;2.35;1.92;;;;;;;27.46;56.96;98418.41;4122830;28;20236;-87
2023/09/16 09:29:26;;;;;;;3.10;1.63;;;;;;;27.97;56.21;98408.88;4157637;28;20912;-86
2023/09/16 09:31:28;;;;;;;2.65;1.58;;;;;;;28.44;56.70;98411.59;4138683;28;20664;-86
2023/09/16 09:33:30;;;;;;;1.80;1.40;;;;;;;28.01;57.21;98406.16;4138353;28;20608;-86
2023/09/16 09:35:32;;;;;;;1.85;1.40;;;;;;;27.98;55.75;98402.06;4121628;28;20729;-86
2023/09/16 09:37:34;;;;;;;2.80;1.60;;;;;;;26.97;58.83;98393.75;4125733;28;20674;-85
2023/09/16 09:39:37;;;;;;;2.45;1.77;;;;;;;27.11;59.40;98397.78;4135641;28;20296;-86